Time;durP1;ratioP1;P1;durP2;ratioP2;P2;SDS_P1;SDS_P2;PMS_P1;PMS_P2;Temp;Humidity;BMP_temperature;BMP_pressure;BME280_temperature;BME280_humidity;BME280_pressure;Samples;Min_cycle;Max_cycle;Signal;HPM_P1;HPM_P2
2023/05/28 00:00:44;;;;;;;20.95;9.05;;;11.40;99.90;;;;;;5040011;28;20499;-75
2023/05/28 00:03:10;;;;;;;21.08;10.07;;;11.50;99.90;;;;;;5049935;28;20048;-76
2023/05/28 00:05:36;;;;;;;18.50;9.32;;;11.40;99.90;;;;;;5047343;28;20043;-74
2023/05/28 00:08:01;;;;;;;21.13;9.75;;;11.30;99.90;;;;;;5071138;28;20400;-75
2023/05/28 00:10:27;;;;;;;20.35;9.65;;;11.30;99.90;;;;;;5073207;28;20055;-75
2023/05/28 00:12:54;;;;;;;20.25;8.52;;;11.30;99.90;;;;;;5039596;28;20168;-75
2023/05/28 00:15:21;;;;;;;20.10;9.35;;;11.30;99.90;;;;;;5041148;28;20047;-74
2023/05/28 00:17:47;;;;;;;21.02;9.50;;;11.20;99.90;;;;;;5055560;28;20040;-73
2023/05/28 00:20:13;;;;;;;17.58;8.73;;;11.20;99.90;;;;;;5054973;28;20071;-74
2023/05/28 00:22:39;;;;;;;20.75;9.23;;;11.10;99.90;;;;;;5056196;28;20048;-75
2023/05/28 00:25:06;;;;;;;17.75;9.30;;;11.10;99.90;;;;;;5056217;28;20040;-74
2023/05/28 00:27:32;;;;;;;17.05;8.05;;;11.10;99.90;;;;;;5040922;28;20048;-75
2023/05/28 00:29:57;;;;;;;17.45;9.55;;;11.00;99.90;;;;;;5056127;28;20047;-74
2023/05/28 00:32:24;;;;;;;16.58;8.60;;;11.00;99.90;;;;;;5068572;28;20464;-75
2023/05/28 00:34:49;;;;;;;19.40;9.02;;;10.90;99.90;;;;;;5057706;28;20574;-75
2023/05/28 00:37:15;;;;;;;17.27;9.00;;;10.80;99.90;;;;;;5054553;28;20101;-73
2023/05/28 00:39:41;;;;;;;17.67;9.35;;;10.80;99.90;;;;;;5058526;28;20051;-75
2023/05/28 00:42:08;;;;;;;16.55;8.90;;;10.80;99.90;;;;;;5049331;28;20055;-75
2023/05/28 00:44:34;;;;;;;17.23;8.45;;;10.80;99.90;;;;;;5068811;28;20064;-74
2023/05/28 00:47:01;;;;;;;18.20;8.95;;;10.80;99.90;;;;;;5046813;28;20048;-75
2023/05/28 00:49:28;;;;;;;21.88;9.80;;;10.80;99.90;;;;;;5054455;28;20044;-75
2023/05/28 00:51:56;;;;;;;19.25;8.90;;;10.90;99.90;;;;;;5044452;28;20048;-75
2023/05/28 00:54:23;;;;;;;16.85;8.55;;;10.80;99.90;;;;;;5054153;28;20082;-75
2023/05/28 00:56:51;;;;;;;22.85;10.15;;;10.80;99.90;;;;;;5054478;28;20153;-75
2023/05/28 00:59:17;;;;;;;20.33;9.02;;;10.80;99.90;;;;;;5035227;28;20047;-75
2023/05/28 01:01:43;;;;;;;22.88;9.13;;;10.90;99.90;;;;;;5053043;28;20569;-76
2023/05/28 01:04:09;;;;;;;18.52;9.27;;;10.90;99.90;;;;;;5068743;28;20039;-76
2023/05/28 01:06:38;;;;;;;17.70;9.23;;;10.90;99.90;;;;;;5039685;28;20135;-76
2023/05/28 01:09:05;;;;;;;19.30;9.65;;;10.80;99.90;;;;;;5053729;28;20041;-76
2023/05/28 01:11:32;;;;;;;21.23;9.18;;;10.80;99.90;;;;;;5039611;28;20075;-74
2023/05/28 01:14:01;;;;;;;18.23;9.10;;;10.80;99.90;;;;;;5067554;28;20834;-76
2023/05/28 01:16:32;;;;;;;16.85;8.60;;;10.80;99.90;;;;;;5043187;28;20047;-75
2023/05/28 01:18:58;;;;;;;21.85;10.18;;;10.80;99.90;;;;;;5052820;28;20044;-75
2023/05/28 01:21:30;;;;;;;19.90;9.18;;;10.90;99.90;;;;;;5052412;28;20044;-76
2023/05/28 01:23:59;;;;;;;20.05;10.20;;;10.90;99.90;;;;;;5054246;28;20083;-76
2023/05/28 01:26:32;;;;;;;23.98;9.60;;;10.90;99.90;;;;;;5033549;28;20056;-75
2023/05/28 01:28:57;;;;;;;;;;;10.90;99.90;;;;;;5056536;28;20112;-75
2023/05/28 01:31:23;;;;;;;25.95;11.10;;;10.90;99.90;;;;;;5067900;28;19999;-76
2023/05/28 01:33:49;;;;;;;21.35;9.93;;;10.80;99.90;;;;;;5054237;28;20144;-75
2023/05/28 01:36:30;;;;;;;23.70;10.93;;;10.80;99.90;;;;;;5038470;28;20032;-75
2023/05/28 01:38:59;;;;;;;23.48;10.52;;;10.80;99.90;;;;;;5047427;28;20059;-76
2023/05/28 01:41:28;;;;;;;18.70;9.90;;;10.80;99.90;;;;;;5038358;28;20048;-76
2023/05/28 01:43:55;;;;;;;16.85;9.85;;;10.70;99.90;;;;;;5055333;28;20038;-74
2023/05/28 01:46:25;;;;;;;19.42;10.35;;;10.70;99.90;;;;;;5038968;28;20112;-75
2023/05/28 01:48:51;;;;;;;20.13;9.57;;;10.70;99.90;;;;;;5045917;28;20045;-75
2023/05/28 01:51:27;;;;;;;18.67;10.18;;;10.70;99.90;;;;;;5071376;28;20585;-74
2023/05/28 01:53:53;;;;;;;23.23;11.18;;;10.60;99.90;;;;;;5049227;28;20059;-75
2023/05/28 01:56:19;;;;;;;18.75;10.18;;;10.60;99.90;;;;;;5024200;28;20411;-75
2023/05/28 01:58:45;;;;;;;22.55;10.65;;;10.60;99.90;;;;;;5047885;28;20059;-74
2023/05/28 02:01:28;;;;;;;21.52;9.85;;;10.60;99.90;;;;;;5045822;28;20060;-75
2023/05/28 02:03:57;;;;;;;18.98;10.45;;;10.60;99.90;;;;;;5064682;28;20047;-75
2023/05/28 02:06:24;;;;;;;19.15;9.80;;;10.60;99.90;;;;;;5030204;28;20101;-75
2023/05/28 02:08:51;;;;;;;24.92;10.13;;;10.60;99.90;;;;;;5046510;28;20037;-75
2023/05/28 02:11:17;;;;;;;19.48;10.23;;;10.60;99.90;;;;;;5028828;28;21449;-75
2023/05/28 02:13:44;;;;;;;21.02;10.32;;;10.60;99.90;;;;;;5065147;28;20051;-75
2023/05/28 02:16:17;;;;;;;20.58;10.15;;;10.60;99.90;;;;;;5049916;28;20040;-74
2023/05/28 02:18:47;;;;;;;21.35;10.60;;;10.60;99.90;;;;;;5068108;28;20177;-75
2023/05/28 02:21:13;;;;;;;22.55;10.52;;;10.60;99.90;;;;;;5064718;28;21256;-75
2023/05/28 02:23:42;;;;;;;21.33;10.50;;;10.60;99.90;;;;;;5060628;28;20048;-75
2023/05/28 02:26:08;;;;;;;21.70;11.07;;;10.60;99.90;;;;;;5046524;28;20999;-75
2023/05/28 02:28:34;;;;;;;21.23;10.70;;;10.70;99.90;;;;;;5034698;28;20389;-75
2023/05/28 02:31:00;;;;;;;20.85;10.40;;;10.70;99.90;;;;;;5048867;28;20048;-76
2023/05/28 02:33:32;;;;;;;23.23;11.20;;;10.70;99.90;;;;;;5035719;28;20054;-75
2023/05/28 02:35:57;;;;;;;19.73;11.02;;;10.70;99.90;;;;;;5032055;28;20097;-75
2023/05/28 02:38:23;;;;;;;24.35;11.60;;;10.70;99.90;;;;;;5045499;28;20832;-76
2023/05/28 02:40:49;;;;;;;23.73;11.20;;;10.80;99.90;;;;;;5052253;28;20033;-75
2023/05/28 02:43:15;;;;;;;20.45;10.50;;;10.80;99.90;;;;;;5067908;28;20716;-75
2023/05/28 02:45:41;;;;;;;21.92;11.38;;;10.80;99.90;;;;;;5026227;28;20056;-75
2023/05/28 02:48:07;;;;;;;17.70;10.93;;;10.80;99.90;;;;;;5051808;28;20062;-75
2023/05/28 02:50:33;;;;;;;19.45;10.00;;;10.80;99.90;;;;;;5049717;28;20552;-75
2023/05/28 02:52:58;;;;;;;21.25;10.88;;;10.80;99.90;;;;;;5072559;28;20045;-74
2023/05/28 02:55:45;;;;;;;21.15;11.10;;;10.80;99.90;;;;;;5053227;28;20044;-75
2023/05/28 02:58:10;;;;;;;19.00;10.05;;;10.80;99.90;;;;;;5047022;28;20046;-75
2023/05/28 03:00:37;;;;;;;21.20;11.02;;;10.80;99.90;;;;;;5057468;28;20045;-75
2023/05/28 03:03:03;;;;;;;19.75;10.18;;;10.80;99.90;;;;;;5044942;28;20036;-74
2023/05/28 03:05:31;;;;;;;17.98;10.13;;;10.80;99.90;;;;;;5041026;28;20072;-75
2023/05/28 03:07:58;;;;;;;20.90;10.85;;;10.80;99.90;;;;;;5072867;28;20181;-74
2023/05/28 03:10:24;;;;;;;24.23;10.65;;;10.80;99.90;;;;;;5040664;28;20044;-75
2023/05/28 03:12:50;;;;;;;17.08;9.85;;;10.80;99.90;;;;;;5073678;28;20044;-75
2023/05/28 03:15:19;;;;;;;18.15;9.77;;;10.80;99.90;;;;;;5040658;28;20051;-76
2023/05/28 03:17:45;;;;;;;21.10;10.27;;;10.80;99.90;;;;;;5037277;28;20054;-75
2023/05/28 03:20:11;;;;;;;19.77;10.27;;;10.80;99.90;;;;;;5040616;28;20048;-74
2023/05/28 03:22:39;;;;;;;20.08;9.85;;;10.80;99.90;;;;;;5039116;28;20056;-75
2023/05/28 03:25:05;;;;;;;21.17;11.02;;;10.80;99.90;;;;;;5054326;28;20039;-76
2023/05/28 03:27:32;;;;;;;20.27;10.77;;;10.80;99.90;;;;;;5051401;28;20131;-75
2023/05/28 03:29:58;;;;;;;21.42;10.65;;;10.80;99.90;;;;;;5044783;28;20046;-75
2023/05/28 03:32:24;;;;;;;17.33;9.20;;;10.80;99.90;;;;;;5061301;28;20051;-75
2023/05/28 03:34:49;;;;;;;19.65;10.82;;;10.80;99.90;;;;;;5054771;28;20256;-76
2023/05/28 03:37:16;;;;;;;19.88;10.25;;;10.80;99.90;;;;;;5052681;28;20054;-76
2023/05/28 03:39:43;;;;;;;22.73;11.73;;;10.80;99.90;;;;;;5069406;28;20044;-76
2023/05/28 03:42:09;;;;;;;18.17;11.27;;;10.80;99.90;;;;;;5051963;28;20048;-75
2023/05/28 03:44:34;;;;;;;25.95;12.45;;;10.80;99.90;;;;;;5070235;28;20056;-76
2023/05/28 03:47:01;;;;;;;24.42;10.98;;;10.80;99.90;;;;;;5058233;28;21698;-76
2023/05/28 03:49:27;;;;;;;24.75;11.77;;;10.80;99.90;;;;;;5036584;28;20045;-77
2023/05/28 03:51:52;;;;;;;23.65;11.40;;;10.80;99.90;;;;;;5054871;28;20407;-77
2023/05/28 03:54:18;;;;;;;21.50;10.13;;;10.80;99.90;;;;;;5037476;28;20063;-76
2023/05/28 03:56:44;;;;;;;18.85;9.35;;;10.80;99.90;;;;;;5042452;28;20080;-75
2023/05/28 03:59:10;;;;;;;18.25;9.82;;;10.80;99.90;;;;;;5041755;28;20040;-76
2023/05/28 04:01:36;;;;;;;19.63;10.70;;;10.80;99.90;;;;;;5053564;28;20036;-74
2023/05/28 04:04:03;;;;;;;23.05;9.95;;;10.80;99.90;;;;;;5070509;28;20044;-75
2023/05/28 04:06:31;;;;;;;17.70;9.98;;;10.80;99.90;;;;;;5054740;28;20590;-76
2023/05/28 04:08:57;;;;;;;20.55;9.90;;;10.80;99.90;;;;;;5069179;28;20052;-76
2023/05/28 04:11:24;;;;;;;20.92;10.10;;;10.80;99.90;;;;;;5054713;28;20060;-75
2023/05/28 04:13:51;;;;;;;21.10;10.02;;;10.80;99.90;;;;;;5041587;28;20090;-75
2023/05/28 04:16:17;;;;;;;20.23;9.88;;;10.80;99.90;;;;;;5055676;28;20058;-75
2023/05/28 04:18:42;;;;;;;21.20;10.48;;;10.80;99.90;;;;;;5070022;28;20056;-74
2023/05/28 04:21:08;;;;;;;16.67;9.55;;;10.80;99.90;;;;;;5070567;28;20067;-75
2023/05/28 04:23:34;;;;;;;21.95;10.57;;;10.80;99.90;;;;;;5063161;28;20352;-75
2023/05/28 04:26:00;;;;;;;22.48;10.88;;;10.80;99.90;;;;;;5039090;28;20044;-75
2023/05/28 04:28:27;;;;;;;20.95;9.68;;;10.80;99.90;;;;;;5073161;28;20044;-75
2023/05/28 04:30:54;;;;;;;20.08;9.80;;;10.80;99.90;;;;;;5055851;28;20040;-74
2023/05/28 04:33:20;;;;;;;21.83;10.48;;;10.80;99.90;;;;;;5039024;28;20117;-75
2023/05/28 04:35:50;;;;;;;21.00;9.60;;;10.80;99.90;;;;;;5043728;28;21818;-75
2023/05/28 04:38:20;;;;;;;20.35;10.02;;;10.80;99.90;;;;;;5042519;28;20059;-75
2023/05/28 04:40:45;;;;;;;18.45;9.52;;;10.80;99.90;;;;;;5037803;28;20040;-74
2023/05/28 04:43:11;;;;;;;19.73;10.20;;;10.80;99.90;;;;;;5069426;28;20051;-73
2023/05/28 04:45:37;;;;;;;19.02;9.80;;;10.90;99.90;;;;;;5054336;28;20052;-74
2023/05/28 04:48:04;;;;;;;24.90;10.68;;;10.90;99.90;;;;;;5051841;28;20492;-75
2023/05/28 04:50:30;;;;;;;21.65;9.65;;;10.90;99.90;;;;;;5054280;28;20043;-74
2023/05/28 04:53:02;;;;;;;19.42;9.35;;;10.90;99.90;;;;;;5054623;28;20488;-74
2023/05/28 04:55:28;;;;;;;19.92;9.63;;;11.00;99.90;;;;;;5053859;28;20071;-74
2023/05/28 04:57:54;;;;;;;19.08;10.45;;;11.00;99.90;;;;;;5071396;28;20093;-76
2023/05/28 05:00:20;;;;;;;20.55;9.13;;;11.00;99.90;;;;;;5036752;28;20041;-74
2023/05/28 05:02:49;;;;;;;20.73;9.43;;;11.10;99.90;;;;;;5055053;28;20467;-75
2023/05/28 05:05:16;;;;;;;17.15;9.38;;;11.20;99.90;;;;;;5052184;28;20055;-74
2023/05/28 05:07:42;;;;;;;18.10;9.02;;;11.20;99.90;;;;;;5043152;28;20055;-74
2023/05/28 05:10:09;;;;;;;18.80;9.55;;;11.30;99.90;;;;;;5035014;28;20459;-75
2023/05/28 05:12:36;;;;;;;19.75;9.60;;;11.30;99.90;;;;;;5053869;28;20063;-76
2023/05/28 05:15:08;;;;;;;17.42;8.88;;;11.40;99.90;;;;;;5053033;28;20071;-76
2023/05/28 05:17:34;;;;;;;17.27;8.75;;;11.40;99.90;;;;;;5054916;28;20047;-75
2023/05/28 05:20:04;;;;;;;19.38;9.05;;;11.50;99.90;;;;;;5041748;28;20047;-75
2023/05/28 05:22:31;;;;;;;20.88;9.20;;;11.50;99.90;;;;;;5038772;28;20071;-74
2023/05/28 05:24:57;;;;;;;19.48;8.93;;;11.60;99.90;;;;;;5052386;28;20050;-75
2023/05/28 05:27:23;;;;;;;16.63;8.50;;;11.60;99.90;;;;;;5055345;28;20044;-75
2023/05/28 05:29:49;;;;;;;17.17;9.35;;;11.70;99.90;;;;;;5069896;28;20036;-74
2023/05/28 05:32:15;;;;;;;21.45;9.05;;;11.70;99.90;;;;;;5051371;28;20826;-75
2023/05/28 05:34:41;;;;;;;17.05;8.45;;;11.80;99.90;;;;;;5034504;28;20048;-75
2023/05/28 05:37:06;;;;;;;19.38;9.70;;;11.90;99.90;;;;;;5050449;28;20051;-75
2023/05/28 05:39:32;;;;;;;16.08;7.85;;;12.00;99.90;;;;;;5049943;28;20048;-75
2023/05/28 05:41:59;;;;;;;19.88;8.80;;;12.10;99.90;;;;;;5048618;28;20052;-74
2023/05/28 05:44:27;;;;;;;16.80;8.10;;;12.20;99.90;;;;;;5030111;28;20497;-75
2023/05/28 05:46:53;;;;;;;16.13;8.18;;;12.30;99.90;;;;;;5063224;28;20052;-75
2023/05/28 05:49:19;;;;;;;14.88;7.82;;;12.40;99.90;;;;;;5066557;28;20055;-75
2023/05/28 05:51:45;;;;;;;19.17;8.15;;;12.50;99.90;;;;;;5050606;28;20052;-75
2023/05/28 05:54:11;;;;;;;14.63;7.53;;;12.50;99.90;;;;;;5030800;28;20041;-75
2023/05/28 05:56:40;;;;;;;15.80;6.75;;;12.60;99.90;;;;;;5049790;28;20087;-76
2023/05/28 05:59:06;;;;;;;15.23;7.23;;;12.60;99.90;;;;;;5032430;28;20040;-75
2023/05/28 06:01:35;;;;;;;12.65;6.57;;;12.70;99.90;;;;;;5065800;28;21684;-73
2023/05/28 06:04:01;;;;;;;21.98;8.35;;;12.70;99.90;;;;;;5035922;28;20047;-74
2023/05/28 06:06:27;;;;;;;15.15;7.38;;;12.80;99.90;;;;;;5036540;28;20055;-74
2023/05/28 06:08:53;;;;;;;16.80;7.88;;;12.80;99.90;;;;;;5036756;28;20253;-75
2023/05/28 06:11:19;;;;;;;16.52;7.88;;;12.90;99.90;;;;;;5037008;28;20310;-75
2023/05/28 06:13:45;;;;;;;17.02;8.25;;;12.90;99.90;;;;;;5035033;28;20559;-74
2023/05/28 06:16:11;;;;;;;15.85;7.10;;;12.90;99.90;;;;;;5070132;28;20116;-75
2023/05/28 06:18:36;;;;;;;15.50;7.72;;;13.00;99.90;;;;;;5049549;28;20148;-75
2023/05/28 06:21:03;;;;;;;15.07;6.85;;;13.00;99.90;;;;;;5035163;28;20131;-74
2023/05/28 06:23:31;;;;;;;15.65;7.43;;;13.10;99.90;;;;;;5084970;28;20052;-75
2023/05/28 06:26:01;;;;;;;13.90;7.32;;;13.10;99.90;;;;;;5049791;28;20040;-75
2023/05/28 06:28:27;;;;;;;15.52;7.18;;;13.30;99.90;;;;;;5051219;28;20444;-75
2023/05/28 06:30:53;;;;;;;15.48;7.53;;;13.40;99.90;;;;;;5068704;28;20050;-75
2023/05/28 06:33:19;;;;;;;17.23;7.82;;;13.40;99.90;;;;;;5051541;28;20119;-75
2023/05/28 06:35:48;;;;;;;17.55;7.88;;;13.50;99.90;;;;;;5049388;28;20055;-75
2023/05/28 06:38:14;;;;;;;13.95;6.70;;;13.60;99.90;;;;;;5048276;28;20123;-75
2023/05/28 06:40:40;;;;;;;15.98;7.53;;;13.70;99.90;;;;;;5052022;28;20138;-75
2023/05/28 06:43:06;;;;;;;12.52;6.43;;;13.80;99.90;;;;;;5046051;28;20399;-75
2023/05/28 06:45:33;;;;;;;16.65;6.53;;;13.90;99.90;;;;;;5069274;28;20055;-75
2023/05/28 06:48:01;;;;;;;15.32;7.20;;;14.00;99.90;;;;;;5032988;28;20051;-75
2023/05/28 06:50:26;;;;;;;12.68;7.15;;;14.10;99.90;;;;;;5034988;28;20146;-76
2023/05/28 06:52:52;;;;;;;13.82;6.72;;;14.20;99.90;;;;;;5066348;28;20028;-74
2023/05/28 06:55:18;;;;;;;16.00;6.90;;;14.30;99.90;;;;;;5034955;28;20056;-75
2023/05/28 06:57:44;;;;;;;12.70;6.40;;;14.50;99.90;;;;;;5067999;28;20052;-75
2023/05/28 07:00:16;;;;;;;10.68;6.97;;;14.50;99.90;;;;;;5048499;28;20059;-75
2023/05/28 07:02:45;;;;;;;15.60;6.88;;;14.70;99.90;;;;;;5067086;28;20618;-76
2023/05/28 07:05:12;;;;;;;18.17;7.35;;;14.80;99.90;;;;;;5048620;28;21526;-76
2023/05/28 07:07:38;;;;;;;15.30;6.97;;;14.90;99.90;;;;;;5068590;28;20095;-75
2023/05/28 07:10:04;;;;;;;14.75;6.95;;;15.00;99.90;;;;;;5050115;28;20074;-76
2023/05/28 07:12:30;;;;;;;15.57;7.60;;;15.10;99.90;;;;;;5049378;28;20051;-76
2023/05/28 07:14:56;;;;;;;11.27;6.75;;;15.30;99.90;;;;;;5068824;28;20059;-77
2023/05/28 07:17:22;;;;;;;14.25;7.30;;;15.40;99.90;;;;;;5067996;28;20059;-77
2023/05/28 07:19:48;;;;;;;14.27;7.10;;;15.50;99.90;;;;;;5049185;28;20071;-76
2023/05/28 07:22:14;;;;;;;14.50;6.57;;;15.60;99.90;;;;;;5048900;28;20040;-76
2023/05/28 07:24:40;;;;;;;15.20;7.35;;;15.70;99.90;;;;;;5034016;28;20043;-77
2023/05/28 07:27:06;;;;;;;13.35;7.13;;;15.70;99.90;;;;;;5049280;28;20047;-76
2023/05/28 07:29:32;;;;;;;15.40;6.97;;;15.80;99.90;;;;;;5067791;28;20056;-76
2023/05/28 07:31:57;;;;;;;12.05;6.97;;;15.90;99.90;;;;;;5046613;28;20109;-75
2023/05/28 07:34:23;;;;;;;13.57;7.68;;;15.90;99.90;;;;;;5049303;28;20583;-75
2023/05/28 07:36:49;;;;;;;14.20;7.28;;;15.90;99.90;;;;;;5031042;28;21271;-75
2023/05/28 07:39:18;;;;;;;13.98;7.78;;;15.90;99.90;;;;;;5052936;28;20055;-74
2023/05/28 07:41:44;;;;;;;14.27;7.65;;;16.10;99.90;;;;;;5037029;28;20056;-75
2023/05/28 07:44:10;;;;;;;14.13;7.05;;;16.20;99.90;;;;;;5069083;28;20449;-75
2023/05/28 07:46:37;;;;;;;12.07;7.10;;;16.40;99.90;;;;;;5069279;28;20174;-75
2023/05/28 07:49:03;;;;;;;10.75;6.63;;;16.50;99.90;;;;;;5069222;28;20131;-75
2023/05/28 07:51:32;;;;;;;11.52;7.55;;;16.70;99.90;;;;;;5052621;28;20043;-75
2023/05/28 07:53:58;;;;;;;12.68;7.20;;;16.80;99.90;;;;;;5020187;28;20040;-76
2023/05/28 07:56:24;;;;;;;13.27;7.07;;;16.90;99.90;;;;;;5035343;28;20439;-76
2023/05/28 07:58:50;;;;;;;16.55;7.72;;;17.10;99.90;;;;;;5071010;28;20170;-76
2023/05/28 08:01:16;;;;;;;14.35;7.72;;;17.10;99.90;;;;;;5067087;28;20597;-76
2023/05/28 08:03:42;;;;;;;16.30;7.57;;;17.20;99.90;;;;;;5052349;28;20567;-76
2023/05/28 08:06:11;;;;;;;10.82;6.88;;;17.30;99.90;;;;;;5036787;28;20062;-74
2023/05/28 08:08:37;;;;;;;12.60;7.35;;;17.40;99.90;;;;;;5068970;28;20051;-75
2023/05/28 08:11:02;;;;;;;10.40;7.03;;;17.50;99.90;;;;;;5052187;28;20044;-76
2023/05/28 08:13:28;;;;;;;12.88;6.90;;;17.50;99.90;;;;;;5036820;28;20096;-76
2023/05/28 08:15:54;;;;;;;11.60;6.97;;;17.60;99.90;;;;;;5052496;28;20040;-75
2023/05/28 08:18:20;;;;;;;10.73;6.90;;;17.70;99.90;;;;;;5026462;28;20040;-77
2023/05/28 08:20:46;;;;;;;13.50;6.90;;;17.80;99.90;;;;;;5052829;28;20122;-75
2023/05/28 08:23:12;;;;;;;14.75;7.60;;;17.80;99.90;;;;;;5052978;28;21143;-75
2023/05/28 08:25:38;;;;;;;13.45;6.55;;;17.80;99.90;;;;;;5052023;28;20170;-75
2023/05/28 08:28:04;;;;;;;12.60;7.22;;;17.90;99.50;;;;;;5053922;28;20150;-75
2023/05/28 08:30:30;;;;;;;10.68;6.95;;;17.90;96.70;;;;;;5055262;28;20048;-77
2023/05/28 08:32:56;;;;;;;12.43;6.55;;;17.90;97.70;;;;;;5069256;28;20071;-76
2023/05/28 08:35:22;;;;;;;9.90;6.20;;;17.90;98.50;;;;;;5038502;28;20413;-76
2023/05/28 08:37:49;;;;;;;12.00;6.10;;;18.10;98.40;;;;;;5071821;28;20052;-76
2023/05/28 08:40:15;;;;;;;9.23;6.40;;;18.30;98.10;;;;;;5071143;28;20097;-76
2023/05/28 08:42:41;;;;;;;9.82;6.10;;;18.30;97.70;;;;;;5068574;28;20115;-75
2023/05/28 08:45:07;;;;;;;11.88;6.75;;;18.30;97.20;;;;;;5053496;28;20131;-75
2023/05/28 08:47:34;;;;;;;13.02;6.60;;;18.30;95.40;;;;;;5051748;28;20059;-77
2023/05/28 08:50:05;;;;;;;9.25;5.15;;;18.40;96.40;;;;;;5053551;28;20047;-75
2023/05/28 08:52:34;;;;;;;9.85;5.90;;;18.40;97.40;;;;;;5052803;28;20574;-75
2023/05/28 08:55:01;;;;;;;13.48;6.32;;;18.60;95.70;;;;;;5049900;28;20805;-75
2023/05/28 08:57:30;;;;;;;12.88;6.00;;;18.60;97.20;;;;;;5067699;28;20056;-75
2023/05/28 08:59:58;;;;;;;11.23;6.07;;;18.70;95.40;;;;;;5050754;28;20176;-74
2023/05/28 09:02:25;;;;;;;9.15;5.57;;;18.80;95.70;;;;;;5051662;28;20051;-75
2023/05/28 09:04:53;;;;;;;8.93;5.80;;;18.90;93.10;;;;;;5051612;28;20115;-76
2023/05/28 09:07:19;;;;;;;10.38;6.00;;;18.90;92.00;;;;;;5052442;28;20125;-74
2023/05/28 09:09:45;;;;;;;10.57;6.22;;;18.90;92.40;;;;;;5052480;28;20068;-77
2023/05/28 09:12:20;;;;;;;11.93;6.07;;;19.00;92.80;;;;;;5066888;28;20337;-74
2023/05/28 09:14:51;;;;;;;8.95;5.60;;;19.00;92.60;;;;;;5070174;28;20080;-75
2023/05/28 09:17:16;;;;;;;10.32;5.65;;;19.10;92.50;;;;;;5050866;28;20048;-76
2023/05/28 09:19:51;;;;;;;8.43;5.18;;;19.20;91.30;;;;;;5053598;28;20048;-76
2023/05/28 09:22:18;;;;;;;9.52;5.45;;;19.20;90.10;;;;;;5049734;28;20051;-76
2023/05/28 09:24:49;;;;;;;9.82;5.75;;;19.30;85.70;;;;;;5053227;28;20083;-75
2023/05/28 09:27:19;;;;;;;8.55;5.35;;;19.10;79.90;;;;;;5068689;28;20044;-76
2023/05/28 09:29:45;;;;;;;9.40;5.60;;;19.10;77.70;;;;;;5060788;28;20032;-75
2023/05/28 09:32:11;;;;;;;9.13;5.57;;;19.20;77.40;;;;;;5051521;28;20047;-76
2023/05/28 09:34:42;;;;;;;8.00;5.45;;;19.30;77.50;;;;;;5051637;28;20051;-76
2023/05/28 09:37:08;;;;;;;9.13;5.50;;;19.50;70.10;;;;;;5065801;28;20051;-76
2023/05/28 09:39:34;;;;;;;10.10;5.63;;;19.50;68.10;;;;;;5067688;28;20071;-75
2023/05/28 09:42:19;;;;;;;8.85;5.95;;;19.50;69.90;;;;;;5067952;28;20274;-74
2023/05/28 09:44:45;;;;;;;8.18;5.60;;;19.60;66.20;;;;;;5048045;28;20504;-74
2023/05/28 09:47:15;;;;;;;8.55;5.40;;;19.60;65.40;;;;;;5069671;28;20062;-74
2023/05/28 09:49:46;;;;;;;8.38;5.68;;;19.70;67.90;;;;;;5067639;28;20096;-74
2023/05/28 09:52:19;;;;;;;7.40;5.07;;;19.80;68.00;;;;;;5067768;28;20504;-74
2023/05/28 09:54:53;;;;;;;7.22;5.05;;;20.00;67.00;;;;;;5051512;28;20040;-74
2023/05/28 09:57:26;;;;;;;10.38;5.95;;;20.00;64.00;;;;;;5050966;28;20050;-75
2023/05/28 10:00:01;;;;;;;9.40;6.05;;;20.00;64.30;;;;;;5065312;28;20047;-75
2023/05/28 10:02:40;;;;;;;9.77;5.82;;;20.10;64.00;;;;;;5052019;28;20500;-74
2023/05/28 10:05:08;;;;;;;8.95;6.22;;;20.20;63.40;;;;;;5065043;28;20039;-75
2023/05/28 10:07:35;;;;;;;9.27;6.07;;;20.20;61.50;;;;;;5033259;28;20055;-74
2023/05/28 10:10:01;;;;;;;7.70;5.80;;;20.30;61.70;;;;;;5036781;28;21289;-73
2023/05/28 10:12:30;;;;;;;9.27;6.20;;;20.30;63.60;;;;;;5044772;28;20135;-77
2023/05/28 10:14:57;;;;;;;8.30;6.18;;;20.40;64.20;;;;;;5053714;28;20036;-77
2023/05/28 10:17:23;;;;;;;9.00;5.90;;;20.50;65.50;;;;;;5067229;28;20041;-77
2023/05/28 10:19:49;;;;;;;9.32;6.20;;;20.70;63.40;;;;;;5069157;28;20173;-77
2023/05/28 10:22:16;;;;;;;8.68;5.45;;;20.70;63.60;;;;;;5065621;28;20065;-77
2023/05/28 10:24:47;;;;;;;9.80;6.30;;;20.80;61.80;;;;;;5049823;28;20036;-78
2023/05/28 10:27:15;;;;;;;8.77;5.80;;;20.80;63.40;;;;;;5035252;28;20080;-77
2023/05/28 10:29:42;;;;;;;8.90;5.88;;;20.80;61.80;;;;;;5068835;28;20083;-76
2023/05/28 10:32:08;;;;;;;9.93;5.95;;;20.80;60.90;;;;;;5067187;28;20046;-77
2023/05/28 10:34:36;;;;;;;9.05;6.10;;;20.70;62.70;;;;;;5049915;28;20053;-78
2023/05/28 10:37:03;;;;;;;8.52;5.95;;;20.80;63.60;;;;;;5036316;28;20044;-77
2023/05/28 10:39:43;;;;;;;9.85;5.57;;;20.90;63.10;;;;;;5050850;28;20044;-77
2023/05/28 10:42:14;;;;;;;8.98;6.03;;;21.10;62.00;;;;;;5051293;28;20050;-78
2023/05/28 10:45:11;;;;;;;9.00;6.68;;;21.10;63.20;;;;;;5046332;28;20075;-77
2023/05/28 10:47:42;;;;;;;9.77;6.20;;;21.30;63.90;;;;;;5046094;28;20059;-76
2023/05/28 10:50:07;;;;;;;8.00;5.55;;;21.40;62.80;;;;;;5063091;28;20528;-76
2023/05/28 10:52:33;;;;;;;9.68;6.03;;;21.60;62.50;;;;;;5037037;28;20048;-77
2023/05/28 10:55:03;;;;;;;8.75;6.07;;;21.60;62.20;;;;;;5046206;28;20055;-76
2023/05/28 10:57:40;;;;;;;;;;;21.50;60.90;;;;;;5049687;28;20040;-77
2023/05/28 11:00:09;;;;;;;8.32;6.35;;;21.60;62.90;;;;;;5048881;28;19928;-77
2023/05/28 11:02:35;;;;;;;8.90;6.70;;;21.50;61.40;;;;;;5043915;28;20048;-76
2023/05/28 11:05:04;;;;;;;9.85;7.05;;;21.60;59.50;;;;;;5048376;28;20048;-78
2023/05/28 11:07:35;;;;;;;8.90;6.67;;;21.70;56.10;;;;;;5028156;28;20163;-79
2023/05/28 11:10:08;;;;;;;9.15;7.03;;;21.70;55.20;;;;;;5059003;28;20324;-77
2023/05/28 11:12:39;;;;;;;9.80;7.03;;;21.70;56.50;;;;;;5063639;28;20067;-75
2023/05/28 11:15:07;;;;;;;9.13;6.63;;;21.70;56.30;;;;;;5048318;28;20043;-76
2023/05/28 11:17:41;;;;;;;9.95;6.10;;;21.70;55.90;;;;;;5048326;28;20051;-76
2023/05/28 11:20:27;;;;;;;7.53;5.70;;;21.80;52.10;;;;;;5067640;28;20036;-77
2023/05/28 11:22:56;;;;;;;9.30;6.20;;;21.80;54.90;;;;;;5032932;28;20133;-79
2023/05/28 11:25:22;;;;;;;9.50;6.60;;;21.80;54.10;;;;;;5045234;28;20494;-78
2023/05/28 11:27:50;;;;;;;7.57;5.78;;;21.90;53.50;;;;;;5048544;28;20449;-77
2023/05/28 11:30:17;;;;;;;8.27;6.20;;;22.00;50.00;;;;;;5047874;28;20419;-77
2023/05/28 11:32:44;;;;;;;9.48;6.20;;;21.90;49.90;;;;;;5064600;28;20079;-74
2023/05/28 11:35:14;;;;;;;9.02;6.20;;;22.00;51.50;;;;;;5034422;28;20457;-77
2023/05/28 11:37:41;;;;;;;7.63;5.82;;;22.00;50.90;;;;;;5066182;28;20059;-77
2023/05/28 11:40:11;;;;;;;9.73;6.43;;;22.00;50.50;;;;;;5063189;28;20044;-76
2023/05/28 11:42:42;;;;;;;7.20;6.15;;;22.10;50.60;;;;;;5051154;28;20032;-79
2023/05/28 11:45:09;;;;;;;7.80;5.95;;;22.10;51.50;;;;;;5052272;28;20114;-76
2023/05/28 11:47:36;;;;;;;8.85;6.50;;;22.20;51.50;;;;;;5033378;28;21020;-76
2023/05/28 11:50:13;;;;;;;8.77;7.05;;;22.30;51.30;;;;;;5051854;28;20063;-77
2023/05/28 11:52:39;;;;;;;10.35;7.55;;;22.40;51.80;;;;;;5067344;28;20052;-77
2023/05/28 11:55:06;;;;;;;7.75;6.63;;;22.40;50.10;;;;;;5065019;28;21001;-76
2023/05/28 11:57:39;;;;;;;9.30;6.40;;;22.40;49.30;;;;;;5069583;28;20502;-76
2023/05/28 12:00:18;;;;;;;12.10;7.15;;;22.30;50.50;;;;;;5049798;28;20053;-77
2023/05/28 12:02:46;;;;;;;7.57;6.32;;;22.40;51.20;;;;;;5051781;28;20075;-77
2023/05/28 12:05:12;;;;;;;8.13;6.45;;;22.50;50.20;;;;;;5065703;28;20040;-76
2023/05/28 12:07:45;;;;;;;9.10;6.75;;;22.50;50.10;;;;;;5050176;28;20101;-76
2023/05/28 12:10:12;;;;;;;9.40;6.80;;;22.50;51.10;;;;;;5046136;28;20142;-76
2023/05/28 12:12:43;;;;;;;8.18;5.53;;;22.50;51.60;;;;;;5049199;28;20051;-76
2023/05/28 12:15:10;;;;;;;8.02;5.28;;;22.40;51.00;;;;;;5045315;28;20052;-77
2023/05/28 12:17:37;;;;;;;8.00;5.35;;;22.40;52.00;;;;;;5046069;28;20044;-78
2023/05/28 12:20:07;;;;;;;7.03;4.57;;;22.50;49.00;;;;;;5045589;28;21246;-75
2023/05/28 12:22:33;;;;;;;6.68;4.20;;;22.50;48.60;;;;;;5064135;28;20555;-76
2023/05/28 12:25:00;;;;;;;7.05;4.15;;;22.50;48.80;;;;;;5048137;28;20040;-76
2023/05/28 12:27:26;;;;;;;6.82;4.30;;;22.50;49.50;;;;;;5051533;28;20577;-76
2023/05/28 12:29:52;;;;;;;6.70;3.95;;;22.60;49.20;;;;;;5051548;28;20048;-75
2023/05/28 12:32:19;;;;;;;8.40;4.03;;;22.70;50.40;;;;;;5050200;28;20534;-75
2023/05/28 12:34:44;;;;;;;6.85;3.83;;;22.80;51.10;;;;;;5050032;28;20067;-77
2023/05/28 12:37:10;;;;;;;8.32;4.03;;;22.70;49.40;;;;;;5048773;28;20052;-77
2023/05/28 12:39:37;;;;;;;7.85;3.53;;;22.60;50.20;;;;;;5050369;28;20125;-78